Wednesday, December 19, 2018, 10:49 AM EST
Back to Local

KELM, Elmira County Airport

Location: Horseheads, NY, United States Lat: 42.167
Local Time: 10:49 AM EST (15:49 GMT) Lon: -76.9
Time Zone: US/Eastern Elev: 954 ft

Show me the last for .
Show Coded

Time T Td Feel RH Dir Speed Gust Alt SLP Vis Weather Sky Remarks
2018-12-19 09:53 23 17 - 77 - Calm - 30.10 30.14 9 CLR None
2018-12-19 08:53 19 15 - 84 - Calm - 30.11 30.16 10 CLR None
2018-12-19 07:53 15 11 - 83 - Calm - 30.10 30.15 10 CLR None
2018-12-19 06:53 15 10 - 79 - Calm - 30.10 30.15 10 CLR 6-hr Min Temp (7am): 14.0°F
6-hr Max Temp (7am): 16.0°F
2018-12-19 05:53 15 10 - 79 - Calm - 30.10 30.14 10 CLR None
2018-12-19 04:53 15 10 - 79 - Calm - 30.10 30.14 10 CLR None
2018-12-19 03:53 16 11 - 80 - Calm - 30.11 30.15 10 CLR None
2018-12-19 02:53 14 9 - 79 - Calm - 30.12 30.16 10 CLR None
2018-12-19 01:53 16 12 - 84 - Calm - 30.14 30.18 10 CLR None
2018-12-19 00:53 16 11 - 80 - Calm - 30.13 30.17 10 CLR 6-hr Min Temp (1am): 15.1°F
6-hr Max Temp (1am): 23.0°F
2018-12-18 23:53 17 13 - 83 - Calm - 30.14 30.18 10 CLR 24-hr Min Temp (12am): 15.1°F
24-hr Max Temp (12am): 32.0°F
2018-12-18 22:53 16 12 - 84 - Calm - 30.14 30.19 10 CLR None
2018-12-18 21:53 19 14 - 80 - Calm - 30.15 30.20 10 CLR None
2018-12-18 20:53 19 12 - 73 - Calm - 30.16 30.20 10 CLR None
2018-12-18 19:53 17 12 - 80 - Calm - 30.17 30.21 10 CLR None
2018-12-18 18:53 22 14 - 71 - Calm - 30.16 30.20 10 CLR 6-hr Min Temp (7pm): 19.9°F
6-hr Max Temp (7pm): 28.9°F
2018-12-18 17:53 23 14 17 67 10° 5 - 30.16 30.20 10 CLR None
2018-12-18 16:53 26 13 - 56 - Calm - 30.16 30.19 10 CLR None
2018-12-18 15:53 29 14 - 53 - Calm - 30.14 30.17 10 CLR None
2018-12-18 14:53 29 14 19 53 300° 13 - 30.13 30.16 10 CLR None
2018-12-18 13:53 29 14 20 53 290° 10 - 30.13 30.16 10 FEW035 None
2018-12-18 12:53 29 15 16 55 310° 14 21 30.13 30.16 10 OVC033 6-hr Precip Total (1pm): 0.00"
6-hr Min Temp (1pm): 25.0°F
6-hr Max Temp (1pm): 30.0°F
2018-12-18 11:53 27 13 17 54 340° 10 - 30.13 30.16 10 BKN032 None
2018-12-18 11:23 27 14 19 57 340° 7 - 30.14 - 10 OVC031 None
2018-12-18 10:53 27 15 17 60 320° 12 - 30.15 30.18 10 OVC029 None

Support USWX by starting your Amazon purchase here.